Main page
METAR-TAF:

METAR-TAF

Airports :

Sveg Airport

Sveg, Sweden

latitude: 62-02-52N, longitude: 014-25-22E, elevation: 359 m

Current weather observation

The report was made 36 minutes ago, at 21:20 UTC
Wind 4 kt from the Southwest, varying between South/Southeast and West/Northwest
Temperature 1°C
Humidity 86%
Pressure 1010 hPa
Visibility 10 km or more

METAR: ESND 212120Z AUTO 23004KT 150V290 9999 SCT013/// BKN120/// 01/M01 Q1010

Time: 23:56 (21:56 UTC)


TAF: missing

Weather observations and forecasts of more than 4000 airports (METAR and TAF reports).

The available stations are represented by yellow and red dots on the map.

Hover mouse over dot to see the name of the station.

Then click to see weather observations and forecasts.

To change the map : click on the green buttons with a black cross to zoom in, on the green button with a dash to zoom out, or on the green arrows for adjacent maps.


METAR-TAF: